sensor_id;sensor_type;location;lat;lon;timestamp;temperature;humidity
33093;DHT22;19456;46.104;12.908;2022-11-15T00:00:16;9.40;99.90
33093;DHT22;19456;46.104;12.908;2022-11-15T00:02:41;9.50;99.90
33093;DHT22;19456;46.104;12.908;2022-11-15T00:05:07;9.60;99.90
33093;DHT22;19456;46.104;12.908;2022-11-15T00:07:33;9.70;99.90
33093;DHT22;19456;46.104;12.908;2022-11-15T00:09:58;9.70;99.90
33093;DHT22;19456;46.104;12.908;2022-11-15T00:12:23;9.80;99.90
33093;DHT22;19456;46.104;12.908;2022-11-15T00:14:49;9.70;99.90
33093;DHT22;19456;46.104;12.908;2022-11-15T00:17:14;9.70;99.90
33093;DHT22;19456;46.104;12.908;2022-11-15T00:19:40;9.70;99.90
33093;DHT22;19456;46.104;12.908;2022-11-15T00:22:05;9.60;99.90
33093;DHT22;19456;46.104;12.908;2022-11-15T00:24:31;9.50;99.90
33093;DHT22;19456;46.104;12.908;2022-11-15T00:26:56;9.50;99.90
33093;DHT22;19456;46.104;12.908;2022-11-15T00:29:22;9.50;99.90
33093;DHT22;19456;46.104;12.908;2022-11-15T00:31:48;9.50;99.90
33093;DHT22;19456;46.104;12.908;2022-11-15T00:34:13;9.50;99.90
33093;DHT22;19456;46.104;12.908;2022-11-15T00:36:39;9.50;99.90
33093;DHT22;19456;46.104;12.908;2022-11-15T00:39:04;9.40;99.90
33093;DHT22;19456;46.104;12.908;2022-11-15T00:41:30;9.30;99.90
33093;DHT22;19456;46.104;12.908;2022-11-15T00:43:56;9.30;99.90
33093;DHT22;19456;46.104;12.908;2022-11-15T00:46:22;9.30;99.90
33093;DHT22;19456;46.104;12.908;2022-11-15T00:48:47;9.30;99.90
33093;DHT22;19456;46.104;12.908;2022-11-15T00:51:13;9.30;99.90
33093;DHT22;19456;46.104;12.908;2022-11-15T00:53:38;9.40;99.90
33093;DHT22;19456;46.104;12.908;2022-11-15T00:56:04;9.40;99.90
33093;DHT22;19456;46.104;12.908;2022-11-15T00:58:29;9.40;99.90
33093;DHT22;19456;46.104;12.908;2022-11-15T01:00:55;9.40;99.90
33093;DHT22;19456;46.104;12.908;2022-11-15T01:03:21;9.50;99.90
33093;DHT22;19456;46.104;12.908;2022-11-15T01:05:46;9.50;99.90
33093;DHT22;19456;46.104;12.908;2022-11-15T01:08:15;9.50;99.90
33093;DHT22;19456;46.104;12.908;2022-11-15T01:10:41;9.50;99.90
33093;DHT22;19456;46.104;12.908;2022-11-15T01:13:06;9.50;99.90
33093;DHT22;19456;46.104;12.908;2022-11-15T01:15:32;9.60;99.90
33093;DHT22;19456;46.104;12.908;2022-11-15T01:17:58;9.60;99.90
33093;DHT22;19456;46.104;12.908;2022-11-15T01:20:23;9.70;99.90
33093;DHT22;19456;46.104;12.908;2022-11-15T01:22:49;9.70;99.90
33093;DHT22;19456;46.104;12.908;2022-11-15T01:25:14;9.80;99.90
33093;DHT22;19456;46.104;12.908;2022-11-15T01:27:40;9.80;99.90
33093;DHT22;19456;46.104;12.908;2022-11-15T01:30:05;9.80;99.90
33093;DHT22;19456;46.104;12.908;2022-11-15T01:32:31;9.70;99.90
33093;DHT22;19456;46.104;12.908;2022-11-15T01:34:57;9.70;99.90
33093;DHT22;19456;46.104;12.908;2022-11-15T01:37:22;9.70;99.90
33093;DHT22;19456;46.104;12.908;2022-11-15T01:39:47;9.60;99.90
33093;DHT22;19456;46.104;12.908;2022-11-15T01:42:13;9.70;99.90
33093;DHT22;19456;46.104;12.908;2022-11-15T01:47:07;9.60;99.90
33093;DHT22;19456;46.104;12.908;2022-11-15T01:49:35;9.60;99.90
33093;DHT22;19456;46.104;12.908;2022-11-15T01:52:01;9.70;99.90
33093;DHT22;19456;46.104;12.908;2022-11-15T01:54:27;9.70;99.90
33093;DHT22;19456;46.104;12.908;2022-11-15T01:56:55;9.70;99.90
33093;DHT22;19456;46.104;12.908;2022-11-15T01:59:22;9.80;99.90
33093;DHT22;19456;46.104;12.908;2022-11-15T02:01:48;9.80;99.90
33093;DHT22;19456;46.104;12.908;2022-11-15T02:04:18;9.90;99.90
33093;DHT22;19456;46.104;12.908;2022-11-15T02:06:45;9.90;99.90
33093;DHT22;19456;46.104;12.908;2022-11-15T02:09:12;9.90;99.90
33093;DHT22;19456;46.104;12.908;2022-11-15T02:11:38;10.00;99.90
33093;DHT22;19456;46.104;12.908;2022-11-15T02:14:03;9.90;99.90
33093;DHT22;19456;46.104;12.908;2022-11-15T02:16:53;9.70;99.90
33093;DHT22;19456;46.104;12.908;2022-11-15T02:21:51;9.50;99.90
33093;DHT22;19456;46.104;12.908;2022-11-15T02:39:34;9.20;99.90
33093;DHT22;19456;46.104;12.908;2022-11-15T02:42:06;9.20;99.90
33093;DHT22;19456;46.104;12.908;2022-11-15T02:44:52;9.30;99.90
33093;DHT22;19456;46.104;12.908;2022-11-15T02:47:20;9.30;99.90
33093;DHT22;19456;46.104;12.908;2022-11-15T02:49:47;9.30;99.90
33093;DHT22;19456;46.104;12.908;2022-11-15T02:52:17;9.40;99.90
33093;DHT22;19456;46.104;12.908;2022-11-15T02:54:52;9.50;99.90
33093;DHT22;19456;46.104;12.908;2022-11-15T02:57:18;9.60;99.90
33093;DHT22;19456;46.104;12.908;2022-11-15T03:00:27;9.60;99.90
33093;DHT22;19456;46.104;12.908;2022-11-15T03:07:48;9.30;99.90
33093;DHT22;19456;46.104;12.908;2022-11-15T03:10:21;9.20;99.90
33093;DHT22;19456;46.104;12.908;2022-11-15T03:12:54;9.20;99.90
33093;DHT22;19456;46.104;12.908;2022-11-15T03:15:21;9.20;99.90
33093;DHT22;19456;46.104;12.908;2022-11-15T03:18:00;9.20;99.90
33093;DHT22;19456;46.104;12.908;2022-11-15T03:20:27;9.20;99.90
33093;DHT22;19456;46.104;12.908;2022-11-15T03:22:54;9.20;99.90
33093;DHT22;19456;46.104;12.908;2022-11-15T03:25:21;9.20;99.90
33093;DHT22;19456;46.104;12.908;2022-11-15T03:27:49;9.30;99.90
33093;DHT22;19456;46.104;12.908;2022-11-15T03:30:16;9.30;99.90
33093;DHT22;19456;46.104;12.908;2022-11-15T03:32:52;9.40;99.90
33093;DHT22;19456;46.104;12.908;2022-11-15T03:35:21;9.40;99.90
33093;DHT22;19456;46.104;12.908;2022-11-15T03:38:01;9.40;99.90
33093;DHT22;19456;46.104;12.908;2022-11-15T03:40:33;9.40;99.90
33093;DHT22;19456;46.104;12.908;2022-11-15T03:43:05;9.40;99.90
33093;DHT22;19456;46.104;12.908;2022-11-15T03:45:35;9.30;99.90
33093;DHT22;19456;46.104;12.908;2022-11-15T03:48:12;9.30;99.90
33093;DHT22;19456;46.104;12.908;2022-11-15T03:50:39;9.20;99.90
33093;DHT22;19456;46.104;12.908;2022-11-15T03:53:05;9.30;99.90
33093;DHT22;19456;46.104;12.908;2022-11-15T03:55:31;9.30;99.90
33093;DHT22;19456;46.104;12.908;2022-11-15T03:57:57;9.30;99.90
33093;DHT22;19456;46.104;12.908;2022-11-15T04:00:23;9.30;99.90
33093;DHT22;19456;46.104;12.908;2022-11-15T04:02:49;9.40;99.90
33093;DHT22;19456;46.104;12.908;2022-11-15T04:05:15;9.20;99.90
33093;DHT22;19456;46.104;12.908;2022-11-15T04:07:40;9.20;99.90
33093;DHT22;19456;46.104;12.908;2022-11-15T04:10:06;9.20;99.90
33093;DHT22;19456;46.104;12.908;2022-11-15T04:12:35;9.30;99.90
33093;DHT22;19456;46.104;12.908;2022-11-15T04:15:03;9.20;99.90
33093;DHT22;19456;46.104;12.908;2022-11-15T04:17:32;9.20;99.90
33093;DHT22;19456;46.104;12.908;2022-11-15T04:19:58;9.30;99.90
33093;DHT22;19456;46.104;12.908;2022-11-15T04:22:42;9.20;99.90
33093;DHT22;19456;46.104;12.908;2022-11-15T04:25:26;9.30;99.90
33093;DHT22;19456;46.104;12.908;2022-11-15T04:27:52;9.20;99.90
33093;DHT22;19456;46.104;12.908;2022-11-15T04:30:17;9.20;99.90
33093;DHT22;19456;46.104;12.908;2022-11-15T04:32:43;9.30;99.90
33093;DHT22;19456;46.104;12.908;2022-11-15T04:35:08;9.20;99.90
33093;DHT22;19456;46.104;12.908;2022-11-15T04:37:34;9.20;99.90
33093;DHT22;19456;46.104;12.908;2022-11-15T04:40:00;9.30;99.90
33093;DHT22;19456;46.104;12.908;2022-11-15T04:42:26;9.30;99.90
33093;DHT22;19456;46.104;12.908;2022-11-15T04:44:51;9.40;99.90
33093;DHT22;19456;46.104;12.908;2022-11-15T04:47:17;9.30;99.90
33093;DHT22;19456;46.104;12.908;2022-11-15T04:49:42;9.30;99.90
33093;DHT22;19456;46.104;12.908;2022-11-15T04:52:09;9.40;99.90
33093;DHT22;19456;46.104;12.908;2022-11-15T04:54:34;9.30;99.90
33093;DHT22;19456;46.104;12.908;2022-11-15T04:57:00;9.30;99.90
33093;DHT22;19456;46.104;12.908;2022-11-15T04:59:25;9.30;99.90
33093;DHT22;19456;46.104;12.908;2022-11-15T05:01:51;9.10;99.90
33093;DHT22;19456;46.104;12.908;2022-11-15T05:04:16;8.80;99.90
33093;DHT22;19456;46.104;12.908;2022-11-15T05:06:49;8.70;99.90
33093;DHT22;19456;46.104;12.908;2022-11-15T05:09:15;8.70;99.90
33093;DHT22;19456;46.104;12.908;2022-11-15T05:11:41;8.60;99.90
33093;DHT22;19456;46.104;12.908;2022-11-15T05:14:06;8.60;99.90
33093;DHT22;19456;46.104;12.908;2022-11-15T05:16:32;8.60;99.90
33093;DHT22;19456;46.104;12.908;2022-11-15T05:18:57;8.70;99.90
33093;DHT22;19456;46.104;12.908;2022-11-15T05:21:23;8.80;99.90
33093;DHT22;19456;46.104;12.908;2022-11-15T05:23:49;8.70;99.90
33093;DHT22;19456;46.104;12.908;2022-11-15T05:26:15;8.70;99.90
33093;DHT22;19456;46.104;12.908;2022-11-15T05:28:41;8.70;99.90
33093;DHT22;19456;46.104;12.908;2022-11-15T05:31:10;8.80;99.90
33093;DHT22;19456;46.104;12.908;2022-11-15T05:33:36;8.70;99.90
33093;DHT22;19456;46.104;12.908;2022-11-15T05:38:48;8.30;99.90
33093;DHT22;19456;46.104;12.908;2022-11-15T05:41:15;8.30;99.90
33093;DHT22;19456;46.104;12.908;2022-11-15T05:43:41;8.20;99.90
33093;DHT22;19456;46.104;12.908;2022-11-15T05:46:08;8.10;99.90
33093;DHT22;19456;46.104;12.908;2022-11-15T05:48:34;8.20;99.90
33093;DHT22;19456;46.104;12.908;2022-11-15T05:51:00;8.20;99.90
33093;DHT22;19456;46.104;12.908;2022-11-15T05:53:26;8.40;99.90
33093;DHT22;19456;46.104;12.908;2022-11-15T05:55:52;8.40;99.90
33093;DHT22;19456;46.104;12.908;2022-11-15T05:58:18;8.40;99.90
33093;DHT22;19456;46.104;12.908;2022-11-15T06:00:44;8.40;99.90
33093;DHT22;19456;46.104;12.908;2022-11-15T06:03:10;8.40;99.90
33093;DHT22;19456;46.104;12.908;2022-11-15T06:05:35;8.40;99.90
33093;DHT22;19456;46.104;12.908;2022-11-15T06:08:01;8.40;99.90
33093;DHT22;19456;46.104;12.908;2022-11-15T06:10:26;8.40;99.90
33093;DHT22;19456;46.104;12.908;2022-11-15T06:13:02;8.30;99.90
33093;DHT22;19456;46.104;12.908;2022-11-15T06:15:28;8.20;99.90
33093;DHT22;19456;46.104;12.908;2022-11-15T06:17:57;8.00;99.90
33093;DHT22;19456;46.104;12.908;2022-11-15T06:20:23;7.90;99.90
33093;DHT22;19456;46.104;12.908;2022-11-15T06:22:49;7.90;99.90
33093;DHT22;19456;46.104;12.908;2022-11-15T06:25:14;7.80;99.90
33093;DHT22;19456;46.104;12.908;2022-11-15T06:27:40;7.70;99.90
33093;DHT22;19456;46.104;12.908;2022-11-15T06:30:06;7.70;99.90
33093;DHT22;19456;46.104;12.908;2022-11-15T06:32:31;7.70;99.90
33093;DHT22;19456;46.104;12.908;2022-11-15T06:34:57;7.70;99.90
33093;DHT22;19456;46.104;12.908;2022-11-15T06:37:22;7.80;99.90
33093;DHT22;19456;46.104;12.908;2022-11-15T06:39:48;7.80;99.90
33093;DHT22;19456;46.104;12.908;2022-11-15T06:42:13;8.00;99.90
33093;DHT22;19456;46.104;12.908;2022-11-15T06:44:39;8.00;99.90
33093;DHT22;19456;46.104;12.908;2022-11-15T06:47:04;8.00;99.90
33093;DHT22;19456;46.104;12.908;2022-11-15T06:49:30;8.00;99.90
33093;DHT22;19456;46.104;12.908;2022-11-15T06:51:55;8.20;99.90
33093;DHT22;19456;46.104;12.908;2022-11-15T06:54:22;8.30;99.90
33093;DHT22;19456;46.104;12.908;2022-11-15T06:56:48;8.40;99.90
33093;DHT22;19456;46.104;12.908;2022-11-15T06:59:13;8.50;99.90
33093;DHT22;19456;46.104;12.908;2022-11-15T07:01:39;8.60;99.90
33093;DHT22;19456;46.104;12.908;2022-11-15T07:04:06;8.80;99.90
33093;DHT22;19456;46.104;12.908;2022-11-15T07:06:31;8.90;99.90
33093;DHT22;19456;46.104;12.908;2022-11-15T07:08:57;9.00;99.90
33093;DHT22;19456;46.104;12.908;2022-11-15T07:11:22;9.00;99.90
33093;DHT22;19456;46.104;12.908;2022-11-15T07:13:48;9.00;99.90
33093;DHT22;19456;46.104;12.908;2022-11-15T07:16:14;9.10;99.90
33093;DHT22;19456;46.104;12.908;2022-11-15T07:18:40;9.20;99.90
33093;DHT22;19456;46.104;12.908;2022-11-15T07:21:06;9.20;99.90
33093;DHT22;19456;46.104;12.908;2022-11-15T07:23:32;9.30;99.90
33093;DHT22;19456;46.104;12.908;2022-11-15T07:25:58;9.50;99.90
33093;DHT22;19456;46.104;12.908;2022-11-15T07:28:24;9.50;99.90
33093;DHT22;19456;46.104;12.908;2022-11-15T07:30:50;9.60;99.90
33093;DHT22;19456;46.104;12.908;2022-11-15T07:33:15;9.70;99.90
33093;DHT22;19456;46.104;12.908;2022-11-15T07:35:41;9.70;99.90
33093;DHT22;19456;46.104;12.908;2022-11-15T07:38:08;9.70;99.90
33093;DHT22;19456;46.104;12.908;2022-11-15T07:40:33;9.80;99.90
33093;DHT22;19456;46.104;12.908;2022-11-15T07:43:02;9.80;99.90
33093;DHT22;19456;46.104;12.908;2022-11-15T07:45:29;9.90;99.90
33093;DHT22;19456;46.104;12.908;2022-11-15T07:47:54;10.00;99.90
33093;DHT22;19456;46.104;12.908;2022-11-15T07:50:21;10.10;99.90
33093;DHT22;19456;46.104;12.908;2022-11-15T07:52:47;10.20;99.90
33093;DHT22;19456;46.104;12.908;2022-11-15T07:55:13;10.20;99.90
33093;DHT22;19456;46.104;12.908;2022-11-15T07:57:38;10.30;99.90
33093;DHT22;19456;46.104;12.908;2022-11-15T08:00:05;10.40;99.90
33093;DHT22;19456;46.104;12.908;2022-11-15T08:02:31;10.50;99.90
33093;DHT22;19456;46.104;12.908;2022-11-15T08:04:56;10.60;99.90
33093;DHT22;19456;46.104;12.908;2022-11-15T08:07:22;10.70;99.90
33093;DHT22;19456;46.104;12.908;2022-11-15T08:09:47;10.80;99.90
33093;DHT22;19456;46.104;12.908;2022-11-15T08:12:14;10.90;99.90
33093;DHT22;19456;46.104;12.908;2022-11-15T08:14:39;10.90;99.90
33093;DHT22;19456;46.104;12.908;2022-11-15T08:17:05;10.90;99.90
33093;DHT22;19456;46.104;12.908;2022-11-15T08:19:31;11.00;99.90
33093;DHT22;19456;46.104;12.908;2022-11-15T08:21:56;11.00;99.90
33093;DHT22;19456;46.104;12.908;2022-11-15T08:24:22;11.00;99.90
33093;DHT22;19456;46.104;12.908;2022-11-15T08:26:47;11.10;99.90
33093;DHT22;19456;46.104;12.908;2022-11-15T08:29:13;11.10;99.90
33093;DHT22;19456;46.104;12.908;2022-11-15T08:31:38;11.20;99.90
33093;DHT22;19456;46.104;12.908;2022-11-15T08:34:05;11.20;99.90
33093;DHT22;19456;46.104;12.908;2022-11-15T08:36:31;11.20;99.90
33093;DHT22;19456;46.104;12.908;2022-11-15T08:38:56;11.30;99.90
33093;DHT22;19456;46.104;12.908;2022-11-15T08:41:32;11.30;99.90
33093;DHT22;19456;46.104;12.908;2022-11-15T08:43:58;11.30;99.90
33093;DHT22;19456;46.104;12.908;2022-11-15T08:46:24;11.40;99.90
33093;DHT22;19456;46.104;12.908;2022-11-15T08:48:49;11.40;99.90
33093;DHT22;19456;46.104;12.908;2022-11-15T08:51:15;11.50;99.90
33093;DHT22;19456;46.104;12.908;2022-11-15T08:53:41;11.50;99.90
33093;DHT22;19456;46.104;12.908;2022-11-15T08:56:07;11.60;99.90
33093;DHT22;19456;46.104;12.908;2022-11-15T08:58:33;11.70;99.90
33093;DHT22;19456;46.104;12.908;2022-11-15T09:00:58;11.80;99.90
33093;DHT22;19456;46.104;12.908;2022-11-15T09:03:24;11.90;99.90
33093;DHT22;19456;46.104;12.908;2022-11-15T09:05:54;12.00;99.90
33093;DHT22;19456;46.104;12.908;2022-11-15T09:08:19;12.10;99.90
33093;DHT22;19456;46.104;12.908;2022-11-15T09:10:45;12.20;99.90
33093;DHT22;19456;46.104;12.908;2022-11-15T09:13:10;12.20;99.90
33093;DHT22;19456;46.104;12.908;2022-11-15T09:15:36;12.30;99.90
33093;DHT22;19456;46.104;12.908;2022-11-15T09:18:01;12.40;99.90
33093;DHT22;19456;46.104;12.908;2022-11-15T09:20:27;12.50;99.90
33093;DHT22;19456;46.104;12.908;2022-11-15T09:22:53;12.50;99.90
33093;DHT22;19456;46.104;12.908;2022-11-15T09:25:18;12.60;99.90
33093;DHT22;19456;46.104;12.908;2022-11-15T09:27:44;12.70;99.90
33093;DHT22;19456;46.104;12.908;2022-11-15T09:30:10;12.70;99.90
33093;DHT22;19456;46.104;12.908;2022-11-15T09:32:35;12.80;99.90
33093;DHT22;19456;46.104;12.908;2022-11-15T09:35:01;12.90;99.90
33093;DHT22;19456;46.104;12.908;2022-11-15T09:37:27;12.90;99.90
33093;DHT22;19456;46.104;12.908;2022-11-15T09:39:52;12.90;99.90
33093;DHT22;19456;46.104;12.908;2022-11-15T09:42:22;13.00;99.90
33093;DHT22;19456;46.104;12.908;2022-11-15T09:45:02;13.10;99.90
33093;DHT22;19456;46.104;12.908;2022-11-15T09:49:57;13.30;99.90
33093;DHT22;19456;46.104;12.908;2022-11-15T09:52:24;13.40;99.90
33093;DHT22;19456;46.104;12.908;2022-11-15T09:54:51;13.50;99.90
33093;DHT22;19456;46.104;12.908;2022-11-15T10:02:57;14.10;99.90
33093;DHT22;19456;46.104;12.908;2022-11-15T10:05:24;14.30;99.90
33093;DHT22;19456;46.104;12.908;2022-11-15T10:07:54;14.10;99.90
33093;DHT22;19456;46.104;12.908;2022-11-15T10:13:00;14.30;99.90
33093;DHT22;19456;46.104;12.908;2022-11-15T10:15:26;14.30;99.90
33093;DHT22;19456;46.104;12.908;2022-11-15T10:20:55;14.40;99.90
33093;DHT22;19456;46.104;12.908;2022-11-15T10:23:19;14.50;99.90
33093;DHT22;19456;46.104;12.908;2022-11-15T10:25:45;14.60;99.90
33093;DHT22;19456;46.104;12.908;2022-11-15T10:28:21;14.40;99.90
33093;DHT22;19456;46.104;12.908;2022-11-15T10:30:54;14.40;99.90
33093;DHT22;19456;46.104;12.908;2022-11-15T10:35:48;14.70;99.90
33093;DHT22;19456;46.104;12.908;2022-11-15T10:38:14;14.90;99.90
33093;DHT22;19456;46.104;12.908;2022-11-15T10:40:40;14.80;99.90
33093;DHT22;19456;46.104;12.908;2022-11-15T10:45:34;15.20;99.90
33093;DHT22;19456;46.104;12.908;2022-11-15T10:50:39;15.60;99.90
33093;DHT22;19456;46.104;12.908;2022-11-15T10:53:11;15.60;99.90
33093;DHT22;19456;46.104;12.908;2022-11-15T10:55:40;15.70;99.90
33093;DHT22;19456;46.104;12.908;2022-11-15T11:00:46;16.60;99.90
33093;DHT22;19456;46.104;12.908;2022-11-15T11:03:26;16.90;99.90
33093;DHT22;19456;46.104;12.908;2022-11-15T11:06:03;16.90;99.90
33093;DHT22;19456;46.104;12.908;2022-11-15T11:08:29;17.30;99.90
33093;DHT22;19456;46.104;12.908;2022-11-15T11:10:55;17.30;99.90
33093;DHT22;19456;46.104;12.908;2022-11-15T11:13:22;17.70;99.90
33093;DHT22;19456;46.104;12.908;2022-11-15T11:15:51;17.70;99.90
33093;DHT22;19456;46.104;12.908;2022-11-15T11:18:25;17.70;99.90
33093;DHT22;19456;46.104;12.908;2022-11-15T11:20:55;18.10;99.90
33093;DHT22;19456;46.104;12.908;2022-11-15T11:33:38;19.80;99.90
33093;DHT22;19456;46.104;12.908;2022-11-15T11:36:12;20.30;99.90
33093;DHT22;19456;46.104;12.908;2022-11-15T11:41:13;20.10;99.90
33093;DHT22;19456;46.104;12.908;2022-11-15T11:51:45;22.00;99.90
33093;DHT22;19456;46.104;12.908;2022-11-15T11:54:24;22.90;99.90
33093;DHT22;19456;46.104;12.908;2022-11-15T11:56:51;24.20;99.90
33093;DHT22;19456;46.104;12.908;2022-11-15T11:59:21;24.10;99.90
33093;DHT22;19456;46.104;12.908;2022-11-15T12:01:48;24.10;99.90
33093;DHT22;19456;46.104;12.908;2022-11-15T12:06:45;23.30;99.90
33093;DHT22;19456;46.104;12.908;2022-11-15T12:09:17;22.20;99.90
33093;DHT22;19456;46.104;12.908;2022-11-15T12:17:07;21.00;99.90
33093;DHT22;19456;46.104;12.908;2022-11-15T12:19:33;21.80;99.90
33093;DHT22;19456;46.104;12.908;2022-11-15T12:22:02;22.60;99.90
33093;DHT22;19456;46.104;12.908;2022-11-15T12:24:32;22.90;99.90
33093;DHT22;19456;46.104;12.908;2022-11-15T12:27:02;23.00;99.90
33093;DHT22;19456;46.104;12.908;2022-11-15T12:32:30;23.60;99.90
33093;DHT22;19456;46.104;12.908;2022-11-15T12:34:56;24.10;99.90
33093;DHT22;19456;46.104;12.908;2022-11-15T12:42:41;23.90;99.90
33093;DHT22;19456;46.104;12.908;2022-11-15T12:47:51;24.70;99.90
33093;DHT22;19456;46.104;12.908;2022-11-15T12:50:18;25.40;99.90
33093;DHT22;19456;46.104;12.908;2022-11-15T12:55:50;25.80;99.90
33093;DHT22;19456;46.104;12.908;2022-11-15T12:58:42;24.60;99.90
33093;DHT22;19456;46.104;12.908;2022-11-15T13:07:54;23.50;99.90
33093;DHT22;19456;46.104;12.908;2022-11-15T13:12:02;21.20;99.90
33093;DHT22;19456;46.104;12.908;2022-11-15T13:14:38;20.10;99.90
33093;DHT22;19456;46.104;12.908;2022-11-15T13:22:26;18.20;99.90
33093;DHT22;19456;46.104;12.908;2022-11-15T13:27:48;17.10;99.90
33093;DHT22;19456;46.104;12.908;2022-11-15T13:30:22;16.80;99.90
33093;DHT22;19456;46.104;12.908;2022-11-15T13:32:48;16.60;99.90
33093;DHT22;19456;46.104;12.908;2022-11-15T13:35:21;16.30;99.90
33093;DHT22;19456;46.104;12.908;2022-11-15T13:37:48;16.00;99.90
33093;DHT22;19456;46.104;12.908;2022-11-15T13:40:25;15.80;99.90
33093;DHT22;19456;46.104;12.908;2022-11-15T13:42:53;15.70;99.90
33093;DHT22;19456;46.104;12.908;2022-11-15T13:45:19;15.70;99.90
33093;DHT22;19456;46.104;12.908;2022-11-15T13:47:44;15.60;99.90
33093;DHT22;19456;46.104;12.908;2022-11-15T13:50:15;15.60;99.90
33093;DHT22;19456;46.104;12.908;2022-11-15T13:52:42;15.50;99.90
33093;DHT22;19456;46.104;12.908;2022-11-15T13:57:45;15.40;99.90
33093;DHT22;19456;46.104;12.908;2022-11-15T14:02:53;15.10;99.90
33093;DHT22;19456;46.104;12.908;2022-11-15T14:05:20;15.00;99.90
33093;DHT22;19456;46.104;12.908;2022-11-15T14:10:27;14.90;99.90
33093;DHT22;19456;46.104;12.908;2022-11-15T14:12:53;14.80;99.90
33093;DHT22;19456;46.104;12.908;2022-11-15T14:15:32;14.90;99.90
33093;DHT22;19456;46.104;12.908;2022-11-15T14:17:58;14.60;99.90
33093;DHT22;19456;46.104;12.908;2022-11-15T14:22:57;14.70;99.90
33093;DHT22;19456;46.104;12.908;2022-11-15T14:25:27;14.60;99.90
33093;DHT22;19456;46.104;12.908;2022-11-15T14:28:10;14.60;99.90
33093;DHT22;19456;46.104;12.908;2022-11-15T14:30:36;14.70;99.90
33093;DHT22;19456;46.104;12.908;2022-11-15T14:33:01;14.70;99.90
33093;DHT22;19456;46.104;12.908;2022-11-15T14:35:37;14.70;99.90
33093;DHT22;19456;46.104;12.908;2022-11-15T14:38:03;14.70;99.90
33093;DHT22;19456;46.104;12.908;2022-11-15T14:40:29;14.70;99.90
33093;DHT22;19456;46.104;12.908;2022-11-15T14:42:54;14.70;99.90
33093;DHT22;19456;46.104;12.908;2022-11-15T14:45:21;14.60;99.90
33093;DHT22;19456;46.104;12.908;2022-11-15T14:47:47;14.50;99.90
33093;DHT22;19456;46.104;12.908;2022-11-15T14:50:14;14.40;99.90
33093;DHT22;19456;46.104;12.908;2022-11-15T14:52:40;14.40;99.90
33093;DHT22;19456;46.104;12.908;2022-11-15T14:55:24;14.40;99.90
33093;DHT22;19456;46.104;12.908;2022-11-15T14:57:50;14.20;99.90
33093;DHT22;19456;46.104;12.908;2022-11-15T15:00:17;14.10;99.90
33093;DHT22;19456;46.104;12.908;2022-11-15T15:02:44;14.10;99.90
33093;DHT22;19456;46.104;12.908;2022-11-15T15:05:14;13.90;99.90
33093;DHT22;19456;46.104;12.908;2022-11-15T15:07:39;13.90;99.90
33093;DHT22;19456;46.104;12.908;2022-11-15T15:10:05;13.70;99.90
33093;DHT22;19456;46.104;12.908;2022-11-15T15:12:30;13.70;99.90
33093;DHT22;19456;46.104;12.908;2022-11-15T15:14:56;13.60;99.90
33093;DHT22;19456;46.104;12.908;2022-11-15T15:17:21;13.50;99.90
33093;DHT22;19456;46.104;12.908;2022-11-15T15:19:47;13.50;99.90
33093;DHT22;19456;46.104;12.908;2022-11-15T15:22:14;13.50;99.90
33093;DHT22;19456;46.104;12.908;2022-11-15T15:24:39;13.50;99.90
33093;DHT22;19456;46.104;12.908;2022-11-15T15:27:05;13.30;99.90
33093;DHT22;19456;46.104;12.908;2022-11-15T15:29:30;13.30;99.90
33093;DHT22;19456;46.104;12.908;2022-11-15T15:31:56;13.10;99.90
33093;DHT22;19456;46.104;12.908;2022-11-15T15:34:22;12.90;99.90
33093;DHT22;19456;46.104;12.908;2022-11-15T15:36:47;12.90;99.90
33093;DHT22;19456;46.104;12.908;2022-11-15T15:39:13;12.80;99.90
33093;DHT22;19456;46.104;12.908;2022-11-15T15:41:38;12.80;99.90
33093;DHT22;19456;46.104;12.908;2022-11-15T15:44:04;12.80;99.90
33093;DHT22;19456;46.104;12.908;2022-11-15T15:46:29;12.80;99.90
33093;DHT22;19456;46.104;12.908;2022-11-15T15:48:55;12.80;99.90
33093;DHT22;19456;46.104;12.908;2022-11-15T15:51:20;12.70;99.90
33093;DHT22;19456;46.104;12.908;2022-11-15T15:53:46;12.80;99.90
33093;DHT22;19456;46.104;12.908;2022-11-15T15:56:12;12.80;99.90
33093;DHT22;19456;46.104;12.908;2022-11-15T15:58:37;12.70;99.90
33093;DHT22;19456;46.104;12.908;2022-11-15T16:01:03;12.70;99.90
33093;DHT22;19456;46.104;12.908;2022-11-15T16:03:29;12.70;99.90
33093;DHT22;19456;46.104;12.908;2022-11-15T16:05:54;12.60;99.90
33093;DHT22;19456;46.104;12.908;2022-11-15T16:08:21;12.60;99.90
33093;DHT22;19456;46.104;12.908;2022-11-15T16:10:47;12.50;99.90
33093;DHT22;19456;46.104;12.908;2022-11-15T16:13:13;12.50;99.90
33093;DHT22;19456;46.104;12.908;2022-11-15T16:15:38;12.50;99.90
33093;DHT22;19456;46.104;12.908;2022-11-15T16:18:04;12.50;99.90
33093;DHT22;19456;46.104;12.908;2022-11-15T16:20:40;12.50;99.90
33093;DHT22;19456;46.104;12.908;2022-11-15T16:23:12;12.50;99.90
33093;DHT22;19456;46.104;12.908;2022-11-15T16:25:39;12.50;99.90
33093;DHT22;19456;46.104;12.908;2022-11-15T16:28:11;12.50;99.90
33093;DHT22;19456;46.104;12.908;2022-11-15T16:30:39;12.40;99.90
33093;DHT22;19456;46.104;12.908;2022-11-15T16:33:05;12.40;99.90
33093;DHT22;19456;46.104;12.908;2022-11-15T16:35:30;12.40;99.90
33093;DHT22;19456;46.104;12.908;2022-11-15T16:37:56;12.30;99.90
33093;DHT22;19456;46.104;12.908;2022-11-15T16:42:50;12.30;99.90
33093;DHT22;19456;46.104;12.908;2022-11-15T16:45:15;12.30;99.90
33093;DHT22;19456;46.104;12.908;2022-11-15T16:47:41;12.40;99.90
33093;DHT22;19456;46.104;12.908;2022-11-15T16:50:11;12.40;99.90
33093;DHT22;19456;46.104;12.908;2022-11-15T16:52:42;12.40;99.90
33093;DHT22;19456;46.104;12.908;2022-11-15T16:55:08;12.40;99.90
33093;DHT22;19456;46.104;12.908;2022-11-15T16:57:33;12.40;99.90
33093;DHT22;19456;46.104;12.908;2022-11-15T16:59:59;12.40;99.90
33093;DHT22;19456;46.104;12.908;2022-11-15T17:02:24;12.30;99.90
33093;DHT22;19456;46.104;12.908;2022-11-15T17:04:50;12.30;99.90
33093;DHT22;19456;46.104;12.908;2022-11-15T17:07:15;12.30;99.90
33093;DHT22;19456;46.104;12.908;2022-11-15T17:09:41;12.30;99.90
33093;DHT22;19456;46.104;12.908;2022-11-15T17:12:07;12.30;99.90
33093;DHT22;19456;46.104;12.908;2022-11-15T17:14:32;12.30;99.90
33093;DHT22;19456;46.104;12.908;2022-11-15T17:16:58;12.20;99.90
33093;DHT22;19456;46.104;12.908;2022-11-15T17:19:23;12.20;99.90
33093;DHT22;19456;46.104;12.908;2022-11-15T17:21:49;12.20;99.90
33093;DHT22;19456;46.104;12.908;2022-11-15T17:24:15;12.20;99.90
33093;DHT22;19456;46.104;12.908;2022-11-15T17:26:41;12.20;99.90